This is the latest recevied weather packets stored in our database for station/object KC1TEM-13. If no packets are shown the sender has not sent any weather packets the latest 10 day(s).
| Time | Temp. | Humidity | Pressure | Rain* | Wind** | Luminosity | Snow |
|---|---|---|---|---|---|---|---|
| 1777391710 | 14.44° C | 46% | 1023.7 hPa | 0 mm | - | 880 W/m² | - |
| 1777390496 | 14.44° C | 44% | 1024.1 hPa | 0 mm | - | 864 W/m² | - |
| 1777389586 | 13.89° C | 44% | 1024.3 hPa | 0 mm | - | 846 W/m² | - |
| 1777389282 | 14.44° C | 44% | 1024.2 hPa | 0 mm | - | 840 W/m² | - |
| 1777388677 | 14.44° C | 42% | 1024.5 hPa | 0 mm | - | 824 W/m² | - |
| 1777385949 | 13.89° C | 42% | 1024.1 hPa | 0 mm | - | 745 W/m² | - |
| 1777385645 | 13.89° C | 40% | 1024 hPa | 0 mm | - | 731 W/m² | - |
| 1777385343 | 13.89° C | 40% | 1024.1 hPa | 0 mm | - | 720 W/m² | - |
| 1777383828 | 13.33° C | 50% | 1023.8 hPa | 0 mm | - | 658 W/m² | - |
| 1777383524 | 13.33° C | 49% | 1023.9 hPa | 0 mm | - | 643 W/m² | - |
| 1777383221 | 13.33° C | 48% | 1023.8 hPa | 0 mm | - | 617 W/m² | - |
| 1777382919 | 13.33° C | 50% | 1023.8 hPa | 0 mm | - | 614 W/m² | - |
| 1777381396 | 11.67° C | 58% | 1024 hPa | 0 mm | - | 350 W/m² | - |
| 1777379878 | 11.11° C | 64% | 1024.3 hPa | 0 mm | - | 297 W/m² | - |
| 1777379574 | 10.56° C | 66% | 1024.2 hPa | 0 mm | - | 309 W/m² | - |
| 1777379270 | 10.56° C | 70% | 1024.2 hPa | 0 mm | - | 241 W/m² | - |
| 1777378661 | 10.56° C | 70% | 1024.1 hPa | 0 mm | - | 206 W/m² | - |
| 1777378057 | 10.56° C | 72% | 1024.1 hPa | 0 mm | - | 218 W/m² | - |
| 1777377446 | 10° C | 75% | 1024.3 hPa | 0 mm | - | 180 W/m² | - |
| 1777375928 | 7.22° C | 89% | 1024.5 hPa | 0 mm | - | 125 W/m² | - |
| 1777375317 | 6.11° C | 93% | 1024.5 hPa | 0 mm | - | 63 W/m² | - |
| 1777373498 | 3.89° C | 96% | 1024.3 hPa | 0 mm | - | 30 W/m² | - |
| 1777372588 | 2.78° C | 94% | 1024.2 hPa | 0 mm | - | 23 W/m² | - |
| 1777372288 | 2.78° C | 94% | 1024.1 hPa | 0 mm | - | 21 W/m² | - |
| 1777371986 | 2.78° C | 94% | 1024.2 hPa | 0 mm | - | 19 W/m² | - |
* Rain latest hour (hover to see other rain measurements)
** Current wind speed in m/s (hover to see current wind gust speed)